Time;durP1;ratioP1;P1;durP2;ratioP2;P2;SDS_P1;SDS_P2;PMS_P1;PMS_P2;Temp;Humidity;BMP_temperature;BMP_pressure;BME280_temperature;BME280_humidity;BME280_pressure;Samples;Min_cycle;Max_cycle;Signal;HPM_P1;HPM_P2
2022/04/05 00:01:27;;;;;;;14.97;2.27;;;7.20;99.90;;;;;;5063599;28;20119;-32
2022/04/05 00:03:53;;;;;;;9.87;2.20;;;7.20;99.90;;;;;;5062731;28;20131;-30
2022/04/05 00:06:19;;;;;;;13.47;2.10;;;7.20;99.90;;;;;;5041097;28;20461;-32
2022/04/05 00:08:45;;;;;;;10.50;1.93;;;7.20;99.90;;;;;;5041374;28;20556;-32
2022/04/05 00:11:10;;;;;;;17.63;2.33;;;7.30;99.90;;;;;;5044972;28;20055;-32
2022/04/05 00:13:38;;;;;;;13.43;2.63;;;7.20;99.90;;;;;;5044288;28;20048;-32
2022/04/05 00:16:04;;;;;;;13.83;2.47;;;7.20;99.90;;;;;;5045050;28;20045;-31
2022/04/05 00:18:30;;;;;;;10.80;2.30;;;7.20;99.90;;;;;;5028727;28;20079;-34
2022/04/05 00:20:56;;;;;;;10.97;2.13;;;7.20;99.90;;;;;;5044832;28;20068;-31
2022/04/05 00:23:22;;;;;;;11.83;2.40;;;7.10;99.90;;;;;;5044072;28;20155;-30
2022/04/05 00:25:48;;;;;;;15.53;2.50;;;7.20;99.90;;;;;;5044750;28;20048;-32
2022/04/05 00:28:13;;;;;;;13.13;1.80;;;7.20;99.90;;;;;;5045104;28;20055;-30
2022/04/05 00:30:39;;;;;;;15.03;2.37;;;7.00;99.90;;;;;;5064482;28;20095;-30
2022/04/05 00:33:05;;;;;;;13.40;2.00;;;7.10;99.90;;;;;;5063837;28;20036;-31
2022/04/05 00:35:31;;;;;;;14.70;2.57;;;7.10;99.90;;;;;;5046926;28;20048;-31
2022/04/05 00:37:57;;;;;;;11.63;2.33;;;7.10;99.90;;;;;;5037988;28;20052;-31
2022/04/05 00:40:23;;;;;;;14.47;2.67;;;7.10;99.90;;;;;;5064579;28;20493;-34
2022/04/05 00:42:48;;;;;;;14.47;2.60;;;7.10;99.90;;;;;;5063692;28;20040;-34
2022/04/05 00:45:20;;;;;;;13.87;2.13;;;7.10;99.90;;;;;;5064895;28;20537;-30
2022/04/05 00:47:48;;;;;;;;;;;7.00;99.90;;;;;;5048536;28;20049;-33
2022/04/05 00:50:18;;;;;;;10.97;2.07;;;7.00;99.90;;;;;;5064301;28;19953;-33
2022/04/05 00:52:44;;;;;;;14.83;2.80;;;7.00;99.90;;;;;;5063821;28;20105;-31
2022/04/05 00:55:11;;;;;;;13.53;2.30;;;7.10;99.90;;;;;;5064717;28;20383;-30
2022/04/05 00:57:38;;;;;;;10.20;2.27;;;7.00;99.90;;;;;;5045099;28;20131;-34
2022/04/05 01:00:07;;;;;;;11.07;2.20;;;7.00;99.90;;;;;;5063483;28;20040;-31
2022/04/05 01:02:37;;;;;;;18.70;2.97;;;7.00;99.90;;;;;;5063413;28;20044;-34
2022/04/05 01:05:05;;;;;;;16.73;3.03;;;7.10;99.90;;;;;;5059321;28;20047;-32
2022/04/05 01:07:32;;;;;;;17.30;2.97;;;7.00;99.90;;;;;;5027783;28;20049;-33
2022/04/05 01:09:59;;;;;;;18.37;3.53;;;7.00;99.90;;;;;;5044433;28;20049;-30
2022/04/05 01:12:25;;;;;;;18.37;3.03;;;7.00;99.90;;;;;;5043159;28;20064;-33
2022/04/05 01:14:52;;;;;;;12.33;2.70;;;7.00;99.90;;;;;;5044549;28;20496;-31
2022/04/05 01:17:18;;;;;;;14.10;2.37;;;7.00;99.90;;;;;;5028009;28;20722;-30
2022/04/05 01:19:47;;;;;;;16.63;2.50;;;7.00;99.90;;;;;;5032499;28;20411;-33
2022/04/05 01:22:13;;;;;;;19.17;2.90;;;7.00;99.90;;;;;;5063453;28;20456;-31
2022/04/05 01:24:39;;;;;;;16.17;2.80;;;7.00;99.90;;;;;;5064074;28;20582;-31
2022/04/05 01:27:06;;;;;;;15.77;2.57;;;7.00;99.90;;;;;;5044440;28;20503;-34
2022/04/05 01:29:32;;;;;;;13.60;2.40;;;7.00;99.90;;;;;;5064296;28;20052;-30
2022/04/05 01:32:01;;;;;;;13.27;2.73;;;7.00;99.90;;;;;;5064162;28;20102;-34
2022/04/05 01:34:29;;;;;;;16.63;2.83;;;7.00;99.90;;;;;;5063361;28;20045;-31
2022/04/05 01:36:57;;;;;;;14.57;2.90;;;7.00;99.90;;;;;;5047755;28;20057;-33
2022/04/05 01:39:26;;;;;;;14.73;3.07;;;7.00;99.90;;;;;;5061173;28;20060;-31
2022/04/05 01:41:53;;;;;;;17.43;3.20;;;7.00;99.90;;;;;;5066337;28;20462;-31
2022/04/05 01:44:20;;;;;;;17.70;2.60;;;7.00;99.90;;;;;;5066750;28;20082;-31
2022/04/05 01:46:45;;;;;;;14.57;3.03;;;6.90;99.90;;;;;;5051897;28;20551;-30
2022/04/05 01:49:14;;;;;;;19.40;3.20;;;6.90;99.90;;;;;;5066437;28;20079;-31
2022/04/05 01:51:42;;;;;;;15.40;2.70;;;6.90;99.90;;;;;;5067326;28;20037;-30
2022/04/05 01:54:10;;;;;;;16.57;2.70;;;6.90;99.90;;;;;;5066860;28;20162;-31
2022/04/05 01:56:47;;;;;;;17.13;2.97;;;6.90;99.90;;;;;;5049620;28;20853;-34
2022/04/05 01:59:16;;;;;;;16.87;3.03;;;6.90;99.90;;;;;;5065537;28;20036;-32
2022/04/05 02:01:42;;;;;;;19.80;2.80;;;6.90;99.90;;;;;;5048879;28;20056;-30
2022/04/05 02:04:09;;;;;;;19.30;2.67;;;6.90;99.90;;;;;;5055476;28;20051;-32
2022/04/05 02:06:36;;;;;;;21.13;3.37;;;6.90;99.90;;;;;;5036267;28;20041;-31
2022/04/05 02:09:02;;;;;;;21.23;3.33;;;6.90;99.90;;;;;;5044623;28;20451;-31
2022/04/05 02:11:27;;;;;;;21.50;3.50;;;6.80;99.90;;;;;;5046940;28;20040;-33
2022/04/05 02:13:53;;;;;;;22.60;3.13;;;6.80;99.90;;;;;;5046350;28;20052;-30
2022/04/05 02:16:18;;;;;;;19.27;3.13;;;6.80;99.90;;;;;;5036277;28;20044;-33
2022/04/05 02:18:44;;;;;;;19.20;3.17;;;6.80;99.90;;;;;;5042263;28;20056;-34
2022/04/05 02:21:10;;;;;;;19.00;3.33;;;6.80;99.90;;;;;;5066846;28;20044;-30
2022/04/05 02:23:36;;;;;;;27.03;3.40;;;6.80;99.90;;;;;;5066050;28;20044;-31
2022/04/05 02:26:02;;;;;;;24.73;3.57;;;6.80;99.90;;;;;;5063928;28;20040;-32
2022/04/05 02:28:28;;;;;;;18.03;3.07;;;6.80;99.90;;;;;;5050331;28;20182;-33
2022/04/05 02:30:54;;;;;;;21.67;3.70;;;6.80;99.90;;;;;;5063878;28;20131;-31
2022/04/05 02:33:20;;;;;;;22.77;3.23;;;6.80;99.90;;;;;;5065931;28;20040;-31
2022/04/05 02:35:48;;;;;;;24.93;4.00;;;6.80;99.90;;;;;;5066745;28;20052;-33
2022/04/05 02:38:14;;;;;;;23.80;4.27;;;6.80;99.90;;;;;;5050518;28;20155;-33
2022/04/05 02:40:41;;;;;;;20.67;3.70;;;6.80;99.90;;;;;;5066557;28;20093;-32
2022/04/05 02:43:07;;;;;;;27.23;4.13;;;6.80;99.90;;;;;;5065540;28;20170;-31
2022/04/05 02:45:33;;;;;;;25.37;3.97;;;6.80;99.90;;;;;;5066887;28;20040;-33
2022/04/05 02:47:58;;;;;;;22.37;3.70;;;6.70;99.90;;;;;;5049847;28;20044;-32
2022/04/05 02:50:26;;;;;;;26.40;3.70;;;6.80;99.90;;;;;;5066492;28;20047;-34
2022/04/05 02:52:52;;;;;;;23.17;4.23;;;6.80;99.90;;;;;;5065103;28;20040;-32
2022/04/05 02:55:18;;;;;;;30.27;3.50;;;6.70;99.90;;;;;;5065465;28;20056;-31
2022/04/05 02:57:45;;;;;;;24.27;3.43;;;6.70;99.90;;;;;;5047445;28;20579;-34
2022/04/05 03:00:13;;;;;;;17.83;3.57;;;6.70;99.90;;;;;;5060892;28;20069;-34
2022/04/05 03:02:40;;;;;;;18.57;3.50;;;6.70;99.90;;;;;;5043599;28;20045;-32
2022/04/05 03:05:06;;;;;;;21.43;3.23;;;6.70;99.90;;;;;;5060161;28;20037;-32
2022/04/05 03:07:36;;;;;;;20.70;3.40;;;6.70;99.90;;;;;;5029531;28;20044;-34
2022/04/05 03:10:06;;;;;;;24.20;3.30;;;6.70;99.90;;;;;;5046145;28;20041;-31
2022/04/05 03:12:34;;;;;;;25.07;3.13;;;6.60;99.90;;;;;;5043413;28;20091;-31
2022/04/05 03:15:00;;;;;;;20.67;3.07;;;6.60;99.90;;;;;;5044975;28;20283;-34
2022/04/05 03:17:26;;;;;;;20.10;2.93;;;6.60;99.90;;;;;;5029658;28;20071;-31
2022/04/05 03:19:51;;;;;;;20.40;2.77;;;6.60;99.90;;;;;;5046324;28;20041;-30
2022/04/05 03:22:17;;;;;;;21.47;3.00;;;6.60;99.90;;;;;;5044886;28;20075;-32
2022/04/05 03:24:43;;;;;;;19.13;3.07;;;6.60;99.90;;;;;;5045701;28;20109;-34
2022/04/05 03:27:09;;;;;;;22.80;3.57;;;6.60;99.90;;;;;;5045403;28;20048;-33
2022/04/05 03:29:35;;;;;;;22.27;3.30;;;6.60;99.90;;;;;;5065306;28;20593;-30
2022/04/05 03:32:02;;;;;;;16.23;3.03;;;6.50;99.90;;;;;;5065614;28;20403;-30
2022/04/05 03:34:28;;;;;;;18.00;3.13;;;6.60;99.90;;;;;;5063235;28;20049;-31
2022/04/05 03:36:54;;;;;;;20.63;3.67;;;6.60;99.90;;;;;;5048407;28;20133;-30
2022/04/05 03:39:20;;;;;;;27.17;4.00;;;6.60;99.90;;;;;;5063530;28;20048;-33
2022/04/05 03:41:46;;;;;;;22.40;3.57;;;6.50;99.90;;;;;;5064108;28;20452;-31
2022/04/05 03:44:12;;;;;;;24.17;3.60;;;6.50;99.90;;;;;;5064349;28;20079;-30
2022/04/05 03:46:38;;;;;;;23.03;3.97;;;6.50;99.90;;;;;;5051625;28;20510;-32
2022/04/05 03:49:04;;;;;;;24.27;3.40;;;6.50;99.90;;;;;;5062459;28;20260;-30
2022/04/05 03:51:29;;;;;;;21.67;3.73;;;6.60;99.90;;;;;;5065883;28;20339;-33
2022/04/05 03:53:55;;;;;;;19.27;3.87;;;6.50;99.90;;;;;;5064044;28;20451;-32
2022/04/05 03:56:22;;;;;;;26.27;3.93;;;6.50;99.90;;;;;;5054340;28;20045;-31
2022/04/05 03:58:48;;;;;;;16.37;3.80;;;6.50;99.90;;;;;;5060875;28;20056;-33
2022/04/05 04:01:14;;;;;;;23.07;4.07;;;6.50;99.90;;;;;;5050673;28;20048;-30
2022/04/05 04:03:40;;;;;;;24.60;4.00;;;6.50;99.90;;;;;;5048216;28;20044;-33
2022/04/05 04:06:05;;;;;;;26.97;3.80;;;6.40;99.90;;;;;;5053510;28;20420;-34
2022/04/05 04:08:31;;;;;;;17.70;3.03;;;6.50;99.90;;;;;;5031149;28;20029;-33
2022/04/05 04:10:57;;;;;;;17.83;3.37;;;6.50;99.90;;;;;;5045434;28;20057;-33
2022/04/05 04:13:23;;;;;;;23.40;3.90;;;6.50;99.90;;;;;;5043873;28;20041;-33
2022/04/05 04:15:49;;;;;;;25.63;3.80;;;6.50;99.90;;;;;;5045148;28;20049;-31
2022/04/05 04:18:14;;;;;;;17.37;3.13;;;6.40;99.90;;;;;;5028292;28;20075;-33
2022/04/05 04:20:43;;;;;;;20.93;3.60;;;6.40;99.90;;;;;;5044644;28;20124;-34
2022/04/05 04:23:10;;;;;;;24.10;3.53;;;6.40;99.90;;;;;;5043762;28;20041;-30
2022/04/05 04:25:39;;;;;;;21.00;3.57;;;6.40;99.90;;;;;;5044876;28;20033;-31
2022/04/05 04:28:07;;;;;;;20.83;3.20;;;6.40;99.90;;;;;;5028223;28;20514;-33
2022/04/05 04:30:34;;;;;;;27.53;4.10;;;6.40;99.90;;;;;;5043053;28;20060;-31
2022/04/05 04:32:59;;;;;;;23.93;3.67;;;6.40;99.90;;;;;;5044107;28;20419;-30
2022/04/05 04:35:26;;;;;;;18.47;3.07;;;6.40;99.90;;;;;;5062095;28;20040;-32
2022/04/05 04:37:52;;;;;;;18.97;2.90;;;6.40;99.90;;;;;;5048874;28;20547;-33
2022/04/05 04:40:18;;;;;;;16.70;3.00;;;6.40;99.90;;;;;;5064490;28;20155;-30
2022/04/05 04:42:44;;;;;;;19.93;3.30;;;6.30;99.90;;;;;;5064161;28;20483;-33
2022/04/05 04:45:11;;;;;;;22.23;3.63;;;6.30;99.90;;;;;;5064296;28;20127;-33
2022/04/05 04:47:37;;;;;;;24.97;3.53;;;6.40;99.90;;;;;;5048556;28;20037;-32
2022/04/05 04:50:04;;;;;;;20.83;3.07;;;6.30;99.90;;;;;;5064310;28;20105;-31
2022/04/05 04:52:29;;;;;;;21.07;3.10;;;6.30;99.90;;;;;;5064006;28;20079;-32
2022/04/05 04:54:55;;;;;;;21.03;3.60;;;6.30;99.90;;;;;;5064462;28;20158;-33
2022/04/05 04:57:23;;;;;;;17.97;3.07;;;6.30;99.90;;;;;;5048522;28;20044;-32
2022/04/05 04:59:49;;;;;;;23.90;3.60;;;6.30;99.90;;;;;;5061378;28;20559;-33
2022/04/05 05:02:15;;;;;;;21.10;3.20;;;6.30;99.90;;;;;;5042307;28;20561;-30
2022/04/05 05:04:41;;;;;;;24.03;3.60;;;6.30;99.90;;;;;;5051078;28;20064;-32
2022/04/05 05:07:06;;;;;;;17.53;3.47;;;6.30;99.90;;;;;;5028420;28;20178;-31
2022/04/05 05:09:33;;;;;;;22.37;2.87;;;6.30;99.90;;;;;;5043112;28;20044;-33
2022/04/05 05:12:00;;;;;;;22.60;3.70;;;6.30;99.90;;;;;;5044250;28;20427;-30
2022/04/05 05:14:27;;;;;;;15.57;2.83;;;6.30;99.90;;;;;;5043346;28;20162;-31
2022/04/05 05:16:56;;;;;;;20.57;3.53;;;6.30;99.90;;;;;;5032917;28;20133;-31
2022/04/05 05:19:21;;;;;;;19.67;3.23;;;6.30;99.90;;;;;;5045810;28;20171;-34
2022/04/05 05:21:48;;;;;;;17.10;3.10;;;6.30;99.90;;;;;;5048701;28;20127;-34
2022/04/05 05:24:13;;;;;;;21.73;3.50;;;6.30;99.90;;;;;;5046963;28;20110;-31
2022/04/05 05:26:39;;;;;;;23.63;3.57;;;6.30;99.90;;;;;;5032644;28;20455;-32
2022/04/05 05:29:05;;;;;;;22.10;3.60;;;6.30;99.90;;;;;;5045392;28;20040;-30
2022/04/05 05:31:31;;;;;;;20.50;3.63;;;6.30;99.90;;;;;;5047908;28;20088;-31
2022/04/05 05:33:57;;;;;;;18.87;2.90;;;6.30;99.90;;;;;;5052681;28;20048;-32
2022/04/05 05:36:23;;;;;;;21.97;3.43;;;6.30;99.90;;;;;;5055281;28;20063;-31
2022/04/05 05:38:48;;;;;;;23.57;3.47;;;6.30;99.90;;;;;;5064076;28;20063;-32
2022/04/05 05:41:14;;;;;;;23.07;3.77;;;6.40;99.90;;;;;;5067587;28;20494;-34
2022/04/05 05:43:41;;;;;;;23.57;3.67;;;6.30;99.90;;;;;;5067155;28;20492;-30
2022/04/05 05:46:06;;;;;;;20.57;3.50;;;6.40;99.90;;;;;;5064496;28;20048;-32
2022/04/05 05:48:33;;;;;;;21.50;3.93;;;6.30;99.90;;;;;;5056415;28;20054;-34
2022/04/05 05:50:59;;;;;;;16.90;2.47;;;6.40;99.90;;;;;;5065665;28;20048;-30
2022/04/05 05:53:28;;;;;;;21.57;3.40;;;6.40;99.90;;;;;;5066771;28;20059;-30
2022/04/05 05:55:54;;;;;;;20.60;3.40;;;6.40;99.90;;;;;;5067512;28;20048;-33
2022/04/05 05:58:19;;;;;;;20.93;3.27;;;6.40;99.90;;;;;;5050793;28;20036;-32
2022/04/05 06:00:45;;;;;;;12.67;2.87;;;6.50;99.90;;;;;;5056403;28;20045;-33
2022/04/05 06:03:11;;;;;;;23.40;3.30;;;6.40;99.90;;;;;;5029449;28;20048;-32
2022/04/05 06:05:37;;;;;;;14.13;2.83;;;6.50;99.90;;;;;;5060100;28;20091;-31
2022/04/05 06:08:06;;;;;;;18.33;3.23;;;6.50;99.90;;;;;;5031244;28;20041;-32
2022/04/05 06:10:32;;;;;;;18.87;3.40;;;6.50;99.90;;;;;;5050272;28;20040;-33
2022/04/05 06:12:58;;;;;;;17.10;3.50;;;6.50;99.90;;;;;;5036159;28;20048;-31
2022/04/05 06:15:25;;;;;;;19.03;3.03;;;6.50;99.90;;;;;;5053098;28;20068;-33
2022/04/05 06:17:52;;;;;;;17.90;2.80;;;6.50;99.90;;;;;;5035042;28;20047;-33
2022/04/05 06:20:20;;;;;;;18.93;2.93;;;6.60;99.90;;;;;;5030650;28;20336;-33
2022/04/05 06:22:48;;;;;;;17.53;2.97;;;6.50;99.90;;;;;;5049866;28;20045;-33
2022/04/05 06:25:23;;;;;;;19.37;3.17;;;6.60;99.90;;;;;;5045000;28;20052;-35
2022/04/05 06:27:48;;;;;;;20.43;3.00;;;6.60;99.90;;;;;;5031392;28;20048;-36
2022/04/05 06:30:16;;;;;;;18.43;3.13;;;6.60;99.90;;;;;;5049146;28;20420;-34
2022/04/05 06:32:43;;;;;;;20.73;3.10;;;6.60;99.90;;;;;;5051000;28;20132;-37
2022/04/05 06:35:11;;;;;;;17.60;3.23;;;6.70;99.90;;;;;;5048734;28;20408;-33
2022/04/05 06:37:37;;;;;;;18.50;3.03;;;6.70;99.90;;;;;;5030814;28;20095;-37
2022/04/05 06:40:05;;;;;;;24.03;3.33;;;6.70;99.90;;;;;;5050124;28;20092;-33
2022/04/05 06:42:31;;;;;;;16.57;3.10;;;6.70;99.90;;;;;;5048649;28;20541;-34
2022/04/05 06:44:57;;;;;;;25.27;3.80;;;6.70;99.90;;;;;;5052482;28;20479;-33
2022/04/05 06:47:23;;;;;;;18.33;3.00;;;6.90;99.90;;;;;;5033970;28;20325;-36
2022/04/05 06:49:49;;;;;;;18.33;3.10;;;6.80;99.90;;;;;;5048035;28;20159;-36
2022/04/05 06:52:15;;;;;;;20.57;3.47;;;6.90;99.90;;;;;;5045823;28;20697;-37
2022/04/05 06:54:40;;;;;;;25.57;3.10;;;6.90;99.90;;;;;;5039230;28;20378;-36
2022/04/05 06:57:06;;;;;;;11.20;2.70;;;6.90;99.90;;;;;;5031795;28;20044;-31
2022/04/05 06:59:32;;;;;;;23.83;3.00;;;6.90;99.90;;;;;;5048593;28;20649;-31
2022/04/05 07:01:58;;;;;;;15.53;2.97;;;7.00;99.90;;;;;;5050356;28;20344;-30
2022/04/05 07:04:23;;;;;;;24.03;3.33;;;7.00;99.90;;;;;;5048192;28;20391;-31
2022/04/05 07:06:49;;;;;;;13.63;3.10;;;7.00;99.90;;;;;;5034436;28;20571;-33
2022/04/05 07:09:15;;;;;;;15.60;3.30;;;7.10;99.90;;;;;;5040225;28;20048;-33
2022/04/05 07:11:41;;;;;;;17.90;2.97;;;7.10;99.90;;;;;;5040921;28;20056;-32
2022/04/05 07:14:06;;;;;;;19.40;3.17;;;7.10;99.90;;;;;;5045943;28;20079;-32
2022/04/05 07:16:32;;;;;;;16.03;2.87;;;7.20;99.90;;;;;;5034379;28;20106;-34
2022/04/05 07:18:58;;;;;;;17.33;3.30;;;7.10;99.90;;;;;;5044870;28;20048;-34
2022/04/05 07:21:23;;;;;;;14.27;3.10;;;7.10;99.90;;;;;;5048438;28;20044;-34
2022/04/05 07:23:50;;;;;;;14.70;2.73;;;7.20;99.90;;;;;;5049451;28;20561;-35
2022/04/05 07:26:15;;;;;;;15.87;2.87;;;7.20;99.90;;;;;;5038950;28;20474;-35
2022/04/05 07:28:41;;;;;;;14.57;3.23;;;7.20;99.90;;;;;;5044860;28;20048;-33
2022/04/05 07:31:07;;;;;;;19.97;3.00;;;7.30;99.90;;;;;;5047205;28;20063;-36
2022/04/05 07:33:33;;;;;;;12.03;2.63;;;7.20;99.90;;;;;;5034202;28;20136;-37
2022/04/05 07:35:58;;;;;;;13.20;2.80;;;7.30;99.90;;;;;;5048978;28;20112;-36
2022/04/05 07:38:24;;;;;;;17.80;3.10;;;7.40;99.90;;;;;;5029013;28;20447;-34
2022/04/05 07:40:52;;;;;;;12.47;2.57;;;7.30;99.90;;;;;;5044799;28;20049;-36
2022/04/05 07:43:21;;;;;;;17.00;2.90;;;7.40;99.90;;;;;;5045363;28;20522;-35
2022/04/05 07:45:49;;;;;;;11.53;2.50;;;7.40;99.90;;;;;;5046919;28;20524;-34
2022/04/05 07:48:21;;;;;;;12.20;2.80;;;7.40;99.90;;;;;;5014135;28;20059;-35
2022/04/05 07:50:48;;;;;;;13.70;2.83;;;7.40;99.90;;;;;;5045318;28;20131;-35
2022/04/05 07:53:14;;;;;;;11.93;2.53;;;7.40;99.90;;;;;;5049845;28;20040;-33
2022/04/05 07:55:40;;;;;;;15.77;2.70;;;7.40;99.90;;;;;;5043903;28;20692;-35
2022/04/05 07:58:06;;;;;;;12.60;3.00;;;7.50;99.90;;;;;;5029964;28;20172;-32
2022/04/05 08:00:32;;;;;;;14.77;2.97;;;7.50;99.90;;;;;;5043364;28;20049;-34
2022/04/05 08:02:58;;;;;;;14.43;3.13;;;7.50;99.90;;;;;;5052131;28;20056;-33
2022/04/05 08:05:23;;;;;;;15.57;2.80;;;7.40;99.90;;;;;;5045091;28;20036;-33
2022/04/05 08:07:50;;;;;;;10.53;2.57;;;7.60;99.90;;;;;;5037444;28;20060;-37
2022/04/05 08:10:16;;;;;;;15.20;2.67;;;7.60;99.90;;;;;;5046811;28;20358;-33
2022/04/05 08:12:44;;;;;;;14.80;2.70;;;7.60;99.90;;;;;;5044613;28;20298;-33
2022/04/05 08:15:18;;;;;;;16.17;2.97;;;7.60;99.90;;;;;;5044382;28;20040;-32
2022/04/05 08:17:44;;;;;;;16.73;2.67;;;7.60;99.90;;;;;;5035138;28;20044;-32
2022/04/05 08:20:11;;;;;;;15.90;2.93;;;7.70;99.90;;;;;;5049536;28;20507;-31
2022/04/05 08:22:37;;;;;;;17.47;3.10;;;7.70;99.90;;;;;;5047462;28;20048;-32
2022/04/05 08:25:04;;;;;;;14.40;3.03;;;7.80;99.90;;;;;;5043626;28;20141;-34
2022/04/05 08:27:30;;;;;;;15.13;3.90;;;7.80;99.90;;;;;;5032619;28;20076;-34
2022/04/05 08:29:55;;;;;;;9.30;2.40;;;7.80;99.90;;;;;;5045037;28;20152;-34
2022/04/05 08:32:21;;;;;;;14.03;2.30;;;7.80;99.90;;;;;;5048150;28;20048;-34
2022/04/05 08:34:47;;;;;;;15.80;3.13;;;7.90;99.90;;;;;;5054834;28;20495;-31
2022/04/05 08:37:13;;;;;;;18.20;3.13;;;7.80;99.90;;;;;;5033649;28;20123;-34
2022/04/05 08:39:40;;;;;;;14.00;2.80;;;7.90;99.90;;;;;;5047468;28;20080;-34
2022/04/05 08:42:06;;;;;;;11.40;2.83;;;7.90;99.90;;;;;;5047832;28;20688;-31
2022/04/05 08:44:33;;;;;;;11.50;3.27;;;7.90;99.90;;;;;;5041677;28;20077;-31
2022/04/05 08:47:03;;;;;;;10.40;3.10;;;7.80;99.90;;;;;;5027526;28;20048;-33
2022/04/05 08:49:31;;;;;;;14.00;2.90;;;7.90;99.90;;;;;;5051085;28;20525;-32
2022/04/05 08:51:57;;;;;;;10.47;2.73;;;7.90;99.90;;;;;;5055098;28;20040;-35
2022/04/05 08:54:23;;;;;;;10.27;2.83;;;7.90;99.90;;;;;;5050439;28;20037;-34
2022/04/05 08:56:52;;;;;;;10.10;2.60;;;7.90;99.90;;;;;;5035478;28;20075;-31
2022/04/05 08:59:18;;;;;;;10.50;2.47;;;8.00;99.90;;;;;;5053953;28;20048;-34
2022/04/05 09:01:44;;;;;;;10.60;2.47;;;8.00;99.90;;;;;;5053095;28;20041;-32
2022/04/05 09:04:12;;;;;;;12.30;2.50;;;8.00;99.90;;;;;;5048990;28;20086;-32
2022/04/05 09:06:38;;;;;;;8.50;2.17;;;8.10;99.90;;;;;;5037665;28;20044;-35
2022/04/05 09:09:18;;;;;;;9.37;2.40;;;8.10;99.90;;;;;;5049416;28;20456;-33
2022/04/05 09:11:48;;;;;;;8.73;2.07;;;8.10;99.90;;;;;;5049947;28;20670;-33
2022/04/05 09:14:14;;;;;;;9.30;2.10;;;8.20;99.90;;;;;;5050326;28;20037;-34
2022/04/05 09:16:40;;;;;;;9.10;2.27;;;8.20;99.90;;;;;;5036009;28;20133;-33
2022/04/05 09:19:11;;;;;;;11.17;2.57;;;8.20;99.90;;;;;;5051245;28;20392;-31
2022/04/05 09:22:09;;;;;;;16.73;2.70;;;8.30;99.90;;;;;;5050705;28;20052;-32
2022/04/05 09:24:39;;;;;;;12.50;2.37;;;8.30;99.90;;;;;;5026726;28;20049;-31
2022/04/05 09:27:06;;;;;;;12.10;2.78;;;8.30;99.90;;;;;;5031743;28;20086;-34
2022/04/05 09:29:42;;;;;;;8.47;2.37;;;8.30;99.90;;;;;;5048478;28;20045;-33
2022/04/05 09:32:08;;;;;;;9.87;2.63;;;8.30;99.90;;;;;;5049762;28;20555;-31
2022/04/05 09:34:48;;;;;;;10.53;2.80;;;8.40;99.90;;;;;;5050968;28;20049;-32
2022/04/05 09:37:14;;;;;;;7.80;2.63;;;8.40;99.90;;;;;;5035552;28;20041;-32
2022/04/05 09:39:41;;;;;;;10.73;2.70;;;8.50;99.90;;;;;;5050445;28;20055;-33
2022/04/05 09:42:09;;;;;;;12.17;2.83;;;8.50;99.90;;;;;;5047685;28;20475;-32
2022/04/05 09:44:40;;;;;;;10.17;2.70;;;8.40;99.90;;;;;;5050421;28;20132;-31
2022/04/05 09:47:11;;;;;;;11.18;2.90;;;8.50;99.90;;;;;;5034348;28;20613;-31
2022/04/05 09:49:39;;;;;;;10.48;2.60;;;8.50;99.90;;;;;;5044593;28;20055;-30
2022/04/05 09:52:32;;;;;;;11.10;2.90;;;8.40;99.90;;;;;;5048667;28;20939;-33
2022/04/05 09:55:12;;;;;;;12.60;2.80;;;8.50;99.90;;;;;;5050605;28;20083;-33
2022/04/05 09:57:38;;;;;;;11.37;2.93;;;8.50;99.90;;;;;;5038988;28;20131;-35
2022/04/05 10:00:15;;;;;;;9.17;3.20;;;8.50;99.90;;;;;;5050690;28;20037;-32
2022/04/05 10:03:11;;;;;;;7.57;2.60;;;8.50;99.90;;;;;;5041160;28;20045;-32
2022/04/05 10:05:38;;;;;;;6.73;2.00;;;8.50;99.90;;;;;;5048518;28;20048;-34
2022/04/05 10:08:04;;;;;;;5.57;1.93;;;8.50;99.90;;;;;;5031417;28;20044;-34
2022/04/05 10:10:30;;;;;;;9.00;2.37;;;8.50;99.90;;;;;;5049212;28;20052;-34
2022/04/05 10:12:56;;;;;;;4.93;2.17;;;8.50;99.90;;;;;;5051327;28;20048;-32
2022/04/05 10:15:24;;;;;;;6.10;1.87;;;8.50;99.90;;;;;;5052571;28;20105;-32
2022/04/05 10:17:52;;;;;;;4.47;1.53;;;8.50;99.90;;;;;;5025507;28;20057;-32
2022/04/05 10:20:19;;;;;;;3.23;1.30;;;8.60;99.90;;;;;;5049832;28;20474;-35
2022/04/05 10:22:52;;;;;;;4.00;1.20;;;8.60;99.90;;;;;;5053240;28;20090;-34
2022/04/05 10:25:18;;;;;;;4.97;1.03;;;8.60;99.90;;;;;;5047883;28;20056;-32
2022/04/05 10:27:44;;;;;;;2.73;0.90;;;8.60;99.90;;;;;;5038603;28;20079;-33
2022/04/05 10:30:21;;;;;;;5.27;1.43;;;8.70;99.90;;;;;;5054125;28;20037;-33
2022/04/05 10:33:14;;;;;;;2.87;0.77;;;8.70;99.90;;;;;;5053303;28;20053;-34
2022/04/05 10:35:52;;;;;;;3.33;1.00;;;8.70;99.90;;;;;;5045682;28;20288;-34
2022/04/05 10:38:18;;;;;;;2.20;1.07;;;8.70;99.90;;;;;;5037069;28;20650;-31
2022/04/05 10:41:18;;;;;;;3.93;1.20;;;8.70;99.90;;;;;;5046959;28;20508;-31
2022/04/05 10:43:47;;;;;;;2.30;1.00;;;8.70;99.90;;;;;;5051022;28;20392;-34
2022/04/05 10:46:13;;;;;;;2.47;0.80;;;8.70;99.90;;;;;;5039702;28;20053;-32
2022/04/05 10:48:55;;;;;;;0.60;0.40;;;8.70;99.90;;;;;;5042888;28;20063;-32
2022/04/05 10:51:30;;;;;;;1.93;0.87;;;8.70;99.90;;;;;;5050415;28;20123;-32
2022/04/05 10:54:19;;;;;;;5.70;1.13;;;8.70;99.90;;;;;;5048529;28;20075;-35
2022/04/05 10:57:16;;;;;;;2.63;1.00;;;8.80;99.90;;;;;;5033757;28;20542;-35
2022/04/05 11:00:07;;;;;;;1.73;1.20;;;8.80;99.90;;;;;;5049728;28;20170;-35
2022/04/05 11:02:45;;;;;;;3.08;1.50;;;8.90;99.90;;;;;;5046975;28;20132;-35
2022/04/05 11:05:14;;;;;;;2.63;1.50;;;8.90;99.90;;;;;;5048853;28;20128;-32
2022/04/05 11:07:51;;;;;;;5.30;1.83;;;8.90;99.90;;;;;;5036661;28;20051;-35
2022/04/05 11:10:29;;;;;;;4.93;2.00;;;8.90;99.90;;;;;;5047803;28;20080;-35
2022/04/05 11:13:17;;;;;;;3.43;1.80;;;9.00;99.90;;;;;;5046679;28;20250;-34
2022/04/05 11:15:46;;;;;;;2.37;1.50;;;9.00;99.90;;;;;;5051624;28;20086;-35
2022/04/05 11:18:13;;;;;;;3.70;1.87;;;9.10;99.90;;;;;;5033522;28;20637;-32
2022/04/05 11:20:44;;;;;;;3.03;1.53;;;9.10;99.90;;;;;;5052161;28;20624;-32
2022/04/05 11:23:10;;;;;;;3.53;1.40;;;9.10;99.90;;;;;;5049170;28;20388;-33
2022/04/05 11:25:36;;;;;;;2.73;1.40;;;9.10;99.90;;;;;;5044087;28;20128;-32
2022/04/05 11:28:16;;;;;;;3.03;1.40;;;9.10;99.90;;;;;;5034047;28;20523;-35
2022/04/05 11:30:56;;;;;;;3.07;1.33;;;9.20;99.90;;;;;;5047378;28;20235;-31
2022/04/05 11:33:31;;;;;;;2.87;1.17;;;9.20;99.90;;;;;;5049621;28;20041;-31
2022/04/05 11:36:15;;;;;;;1.90;0.90;;;9.20;99.90;;;;;;5046795;28;20090;-32
2022/04/05 11:38:51;;;;;;;2.47;1.13;;;9.20;99.90;;;;;;5040988;28;20594;-34
2022/04/05 11:41:22;;;;;;;3.10;1.30;;;9.10;99.90;;;;;;5049526;28;20072;-34
2022/04/05 11:43:51;;;;;;;1.92;1.05;;;9.20;99.90;;;;;;5048033;28;20067;-34
2022/04/05 11:46:20;;;;;;;1.13;0.90;;;9.20;99.90;;;;;;5034536;28;20570;-35
2022/04/05 11:48:48;;;;;;;3.60;1.07;;;9.30;99.90;;;;;;5041889;28;20068;-36
2022/04/05 11:51:17;;;;;;;1.27;1.13;;;9.20;99.90;;;;;;5055332;28;20052;-35
2022/04/05 11:53:44;;;;;;;1.10;0.90;;;9.20;99.90;;;;;;5050732;28;20047;-36
2022/04/05 11:56:17;;;;;;;1.40;1.10;;;9.30;99.90;;;;;;5043596;28;20048;-36
2022/04/05 11:58:46;;;;;;;1.37;0.90;;;9.30;99.90;;;;;;5045209;28;20632;-36
2022/04/05 12:01:14;;;;;;;1.50;1.30;;;9.40;99.90;;;;;;5046590;28;20048;-35
2022/04/05 12:04:12;;;;;;;1.43;1.10;;;9.40;99.90;;;;;;5046388;28;20784;-32
2022/04/05 12:06:43;;;;;;;1.50;1.40;;;9.40;99.90;;;;;;5035859;28;20048;-33
2022/04/05 12:09:13;;;;;;;1.38;1.08;;;9.50;99.90;;;;;;5044588;28;20049;-35
2022/04/05 12:11:45;;;;;;;1.97;1.47;;;9.60;99.90;;;;;;5048708;28;20519;-36
2022/04/05 12:14:15;;;;;;;1.80;1.47;;;9.60;99.90;;;;;;5048804;28;20087;-34
2022/04/05 12:16:47;;;;;;;2.90;1.40;;;9.80;99.90;;;;;;5030095;28;20037;-36
2022/04/05 12:19:37;;;;;;;2.25;1.20;;;9.80;99.90;;;;;;5048494;28;20446;-32
2022/04/05 12:22:10;;;;;;;2.03;1.30;;;9.90;99.90;;;;;;5047306;28;20057;-33
2022/04/05 12:24:57;;;;;;;1.87;1.40;;;9.90;99.90;;;;;;5045810;28;20148;-35
2022/04/05 12:27:24;;;;;;;1.73;1.30;;;10.00;99.90;;;;;;5030966;28;20388;-35
2022/04/05 12:29:56;;;;;;;2.17;1.47;;;10.00;99.90;;;;;;5051590;28;20052;-35
2022/04/05 12:32:22;;;;;;;2.00;1.40;;;10.10;99.90;;;;;;5049307;28;20045;-34
2022/04/05 12:34:48;;;;;;;2.17;1.50;;;10.10;99.90;;;;;;5054197;28;20059;-35
2022/04/05 12:37:15;;;;;;;3.10;1.93;;;10.20;99.90;;;;;;5035316;28;20434;-35
2022/04/05 12:39:43;;;;;;;2.20;1.70;;;10.30;99.90;;;;;;5053324;28;20045;-36
2022/04/05 12:42:09;;;;;;;2.67;1.77;;;10.30;99.90;;;;;;5044276;28;20487;-36
2022/04/05 12:44:40;;;;;;;2.20;1.70;;;10.30;99.90;;;;;;5045975;28;20575;-33
2022/04/05 12:47:14;;;;;;;2.60;2.13;;;10.30;99.90;;;;;;5033126;28;20563;-34
2022/04/05 12:49:42;;;;;;;2.30;1.90;;;10.30;99.90;;;;;;5047872;28;20045;-33
2022/04/05 12:52:07;;;;;;;2.33;2.00;;;10.30;99.90;;;;;;5042359;28;20044;-35
2022/04/05 12:54:35;;;;;;;2.60;2.20;;;10.40;99.90;;;;;;5047808;28;20586;-35
2022/04/05 12:57:14;;;;;;;2.93;1.90;;;10.30;99.90;;;;;;5029722;28;20060;-32